Cozumel, Mexico

6:04 PM EST on August 31, 2015 (GMT -0500)
APRSWXNET | | Change Station
CLOSE
Current Station
Personal Weather Station
Location: Cozumel,
Elevation: 13 ft
Nearby Weather Stations

Elev 13 ft 20.50 °N, 86.96 °W | Updated 26 minutes ago

Overcast
Overcast
80 °F
Feels Like 85 °F
N
0
Wind Variable Wind from East
Gusts 0.0 mph

Today
High -- | Low -- °F
--% Chance of Precip.
Yesterday
High -- | Low -- °F
Precip. -- in
6:31 AM 7:04 PM
Waning Gibbous, 93% visible
Pressure 29.95 in
Visibility 7.0 miles
Clouds Scattered Clouds 1500 ft
Mostly Cloudy 8000 ft
Overcast 25000 ft
Heat Index 85 °F
Dew Point 76 °F
Humidity 89%
Rainfall in
Snow Depth Not available.
UV 0 out of 12
Pollen Not available.
Air Quality Not available.
Flu Activity Not available.
METAR MMCZ 312244Z 00000KT 7SM SCT015 BKN080 OVC250 26/25 A2995 RMK 8/477 OCNL DROPS
Pressure 29.95 in
Visibility 7.0 miles
Clouds Scattered Clouds 1500 ft
Mostly Cloudy 8000 ft
Overcast 25000 ft
Heat Index 85 °F
Dew Point 76 °F
Humidity 89%
Rainfall in
Snow Depth Not available.
UV 0 out of 12
Pollen Not available.
Air Quality Not available.
Flu Activity Not available.
METAR MMCZ 312244Z 00000KT 7SM SCT015 BKN080 OVC250 26/25 A2995 RMK 8/477 OCNL DROPS

10-Day Weather Forecast

×

Almanac

Astronomy

Aug. 31, 2015 Rise Set
Actual Time
Civil Twilight
Nautical Twilight
Astronomical Twilight
Moon
Length of Visible Light
Length of Day
Tomorrow will be .
, % of the Moon is Illuminated

Today's Extremes

Country Highs Country Lows

Community

WunderPhotos

Upload Photos

1,851,390 photos uploaded!

WunderBlogs® & News

Nearby

Air Quality

  Air Quality AQ Index Pollutant
Not available.

Snow Depth

Station Depth Elevation

Earthquake Activity

City Distance Mag. Time & Date
Minimum magnitude displayed is 2.5.

Coastal Water Temperatures

Place Temperature

Stations

Nearby Weather Stations

Station Location Temp. Windchill Dew Point Humidity Wind Precip. Elev Updated Type